Time;durP1;ratioP1;P1;durP2;ratioP2;P2;SDS_P1;SDS_P2;PMS_P1;PMS_P2;Temp;Humidity;BMP_temperature;BMP_pressure;BME280_temperature;BME280_humidity;BME280_pressure;Samples;Min_cycle;Max_cycle;Signal;HPM_P1;HPM_P2
2019/10/06 00:00:51;;;;;;;5;4.5;;;;;;;;;;;;;
2019/10/06 00:03:16;;;;;;;5.4;4.9;;;;;;;;;;;;;
2019/10/06 00:05:41;;;;;;;5.1;4.7;;;;;;;;;;;;;
2019/10/06 00:08:06;;;;;;;6.4;4.8;;;;;;;;;;;;;
2019/10/06 00:10:31;;;;;;;5.1;4.6;;;;;;;;;;;;;
2019/10/06 00:12:56;;;;;;;5.3;4.8;;;;;;;;;;;;;
2019/10/06 00:15:21;;;;;;;5.1;4.7;;;;;;;;;;;;;
2019/10/06 00:17:46;;;;;;;5.6;5.1;;;;;;;;;;;;;
2019/10/06 00:20:11;;;;;;;5.3;4.8;;;;;;;;;;;;;
2019/10/06 00:22:36;;;;;;;5.6;5.1;;;;;;;;;;;;;
2019/10/06 00:25:02;;;;;;;5.9;4.8;;;;;;;;;;;;;
2019/10/06 00:27:27;;;;;;;5.1;4.7;;;;;;;;;;;;;
2019/10/06 00:29:52;;;;;;;5.2;4.7;;;;;;;;;;;;;
2019/10/06 00:32:19;;;;;;;5.8;5.3;;;;;;;;;;;;;
2019/10/06 00:34:42;;;;;;;5.4;4.9;;;;;;;;;;;;;
2019/10/06 00:37:07;;;;;;;5.7;5.2;;;;;;;;;;;;;
2019/10/06 00:39:32;;;;;;;5.1;4.7;;;;;;;;;;;;;
2019/10/06 00:41:57;;;;;;;5.4;4.9;;;;;;;;;;;;;
2019/10/06 00:44:23;;;;;;;5.8;5.2;;;;;;;;;;;;;
2019/10/06 00:46:48;;;;;;;5.6;5;;;;;;;;;;;;;
2019/10/06 00:49:13;;;;;;;6.2;5.2;;;;;;;;;;;;;
2019/10/06 00:52:59;;;;;;;7.5;5.6;;;;;;;;;;;;;
2019/10/06 00:55:24;;;;;;;5.9;5.4;;;;;;;;;;;;;
2019/10/06 00:57:49;;;;;;;6.1;5.5;;;;;;;;;;;;;
2019/10/06 01:00:16;;;;;;;5.9;5.4;;;;;;;;;;;;;
2019/10/06 01:02:40;;;;;;;5.8;5.3;;;;;;;;;;;;;
2019/10/06 01:05:04;;;;;;;5.9;5.4;;;;;;;;;;;;;
2019/10/06 01:07:29;;;;;;;5.9;5.4;;;;;;;;;;;;;
2019/10/06 01:09:55;;;;;;;6;5.5;;;;;;;;;;;;;
2019/10/06 01:12:20;;;;;;;6.2;5.6;;;;;;;;;;;;;
2019/10/06 01:14:45;;;;;;;6.5;5.9;;;;;;;;;;;;;
2019/10/06 01:17:10;;;;;;;6.9;6.3;;;;;;;;;;;;;
2019/10/06 01:19:35;;;;;;;6.8;6.2;;;;;;;;;;;;;
2019/10/06 01:22:00;;;;;;;6;5.4;;;;;;;;;;;;;
2019/10/06 01:24:25;;;;;;;5.8;5.3;;;;;;;;;;;;;
2019/10/06 01:26:50;;;;;;;6.2;5.6;;;;;;;;;;;;;
2019/10/06 01:29:15;;;;;;;6.4;5.4;;;;;;;;;;;;;
2019/10/06 01:31:40;;;;;;;5.8;5.3;;;;;;;;;;;;;
2019/10/06 01:34:05;;;;;;;5.9;5.4;;;;;;;;;;;;;
2019/10/06 01:36:30;;;;;;;5.8;5.3;;;;;;;;;;;;;
2019/10/06 01:38:56;;;;;;;5.6;5.1;;;;;;;;;;;;;
2019/10/06 01:41:21;;;;;;;5.9;5.4;;;;;;;;;;;;;
2019/10/06 01:43:46;;;;;;;6.2;5.6;;;;;;;;;;;;;
2019/10/06 01:46:11;;;;;;;6;5.4;;;;;;;;;;;;;
2019/10/06 01:48:36;;;;;;;6;5.4;;;;;;;;;;;;;
2019/10/06 01:51:01;;;;;;;6.3;5.7;;;;;;;;;;;;;
2019/10/06 01:53:26;;;;;;;6.9;5.7;;;;;;;;;;;;;
2019/10/06 01:55:51;;;;;;;6;5.4;;;;;;;;;;;;;
2019/10/06 01:58:16;;;;;;;6.3;5.5;;;;;;;;;;;;;
2019/10/06 02:00:43;;;;;;;6;5.5;;;;;;;;;;;;;
2019/10/06 02:03:07;;;;;;;6.3;5.7;;;;;;;;;;;;;
2019/10/06 02:05:32;;;;;;;6.1;5.5;;;;;;;;;;;;;
2019/10/06 02:07:57;;;;;;;6.1;5.5;;;;;;;;;;;;;
2019/10/06 02:10:22;;;;;;;5.9;5.4;;;;;;;;;;;;;
2019/10/06 02:12:47;;;;;;;6;5.5;;;;;;;;;;;;;
2019/10/06 02:15:12;;;;;;;6;5.5;;;;;;;;;;;;;
2019/10/06 02:17:37;;;;;;;8.2;7.4;;;;;;;;;;;;;
2019/10/06 02:20:02;;;;;;;10.7;9.6;;;;;;;;;;;;;
2019/10/06 02:22:27;;;;;;;10.9;9.7;;;;;;;;;;;;;
2019/10/06 02:24:53;;;;;;;8.2;7.3;;;;;;;;;;;;;
2019/10/06 02:27:18;;;;;;;7.2;6.3;;;;;;;;;;;;;
2019/10/06 02:29:43;;;;;;;6.3;5.7;;;;;;;;;;;;;
2019/10/06 02:32:08;;;;;;;6.6;5.9;;;;;;;;;;;;;
2019/10/06 02:34:33;;;;;;;6.2;5.6;;;;;;;;;;;;;
2019/10/06 02:36:58;;;;;;;6.5;5.9;;;;;;;;;;;;;
2019/10/06 02:39:23;;;;;;;6.3;5.7;;;;;;;;;;;;;
2019/10/06 02:41:48;;;;;;;6.4;5.7;;;;;;;;;;;;;
2019/10/06 02:44:14;;;;;;;6.2;5.7;;;;;;;;;;;;;
2019/10/06 02:46:38;;;;;;;7.1;6.1;;;;;;;;;;;;;
2019/10/06 02:49:04;;;;;;;6.1;5.6;;;;;;;;;;;;;
2019/10/06 02:51:29;;;;;;;5.9;5.4;;;;;;;;;;;;;
2019/10/06 02:53:54;;;;;;;7;6;;;;;;;;;;;;;
2019/10/06 02:56:20;;;;;;;6.3;5.7;;;;;;;;;;;;;
2019/10/06 02:58:44;;;;;;;6.4;5.8;;;;;;;;;;;;;
2019/10/06 03:01:09;;;;;;;6.8;6.1;;;;;;;;;;;;;
2019/10/06 03:03:34;;;;;;;6;5.4;;;;;;;;;;;;;
2019/10/06 03:05:59;;;;;;;6.1;5.4;;;;;;;;;;;;;
2019/10/06 03:08:25;;;;;;;5.9;5.3;;;;;;;;;;;;;
2019/10/06 03:10:50;;;;;;;5.9;5.4;;;;;;;;;;;;;
2019/10/06 03:13:15;;;;;;;5.8;5.3;;;;;;;;;;;;;
2019/10/06 03:15:40;;;;;;;6.2;5.6;;;;;;;;;;;;;
2019/10/06 03:18:05;;;;;;;6.3;5.7;;;;;;;;;;;;;
2019/10/06 03:20:30;;;;;;;6.9;5.9;;;;;;;;;;;;;
2019/10/06 03:22:55;;;;;;;6.9;6.2;;;;;;;;;;;;;
2019/10/06 03:25:20;;;;;;;6.6;6;;;;;;;;;;;;;
2019/10/06 03:27:45;;;;;;;6.9;6.3;;;;;;;;;;;;;
2019/10/06 03:30:10;;;;;;;7;6.4;;;;;;;;;;;;;
2019/10/06 03:32:36;;;;;;;9.2;6.8;;;;;;;;;;;;;
2019/10/06 03:35:01;;;;;;;7.1;6.4;;;;;;;;;;;;;
2019/10/06 03:37:26;;;;;;;7.4;6.7;;;;;;;;;;;;;
2019/10/06 03:39:51;;;;;;;7.5;6.8;;;;;;;;;;;;;
2019/10/06 03:42:16;;;;;;;7.4;6.7;;;;;;;;;;;;;
2019/10/06 03:44:51;;;;;;;7.2;6.5;;;;;;;;;;;;;
2019/10/06 03:47:16;;;;;;;7.3;6.6;;;;;;;;;;;;;
2019/10/06 03:49:41;;;;;;;7;6.4;;;;;;;;;;;;;
2019/10/06 03:52:06;;;;;;;7.6;6.9;;;;;;;;;;;;;
2019/10/06 03:54:31;;;;;;;7.5;6.8;;;;;;;;;;;;;
2019/10/06 03:56:56;;;;;;;7.2;6.6;;;;;;;;;;;;;
2019/10/06 03:59:21;;;;;;;7.1;6.5;;;;;;;;;;;;;
2019/10/06 04:02:29;;;;;;;7.5;6.6;;;;;;;7;95.62891;961.4072;;;;
2019/10/06 04:04:54;;;;;;;7.2;6.6;;;;;;;6.97;96.56738;961.4352;;;;
2019/10/06 04:07:19;;;;;;;7.6;6.9;;;;;;;6.7;96.78125;961.5059;;;;
2019/10/06 04:09:44;;;;;;;7.9;7.2;;;;;;;6.66;96.87598;961.4667;;;;
2019/10/06 04:12:09;;;;;;;8;7.2;;;;;;;6.66;97.19531;961.4667;;;;
2019/10/06 04:15:39;;;;;;;8.3;7.5;;;;;;;6.71;97.09082;961.4241;;;;
2019/10/06 04:17:06;;;;;;;8.1;7.4;;;;;;;6.58;96.58398;961.4525;;;;
2019/10/06 04:19:27;;;;;;;8.1;7.3;;;;;;;6.68;96.24121;961.508;;;;
2019/10/06 04:21:49;;;;;;;8.2;7.5;;;;;;;6.79;96.0957;961.5471;;;;
2019/10/06 04:24:14;;;;;;;7.9;7.2;;;;;;;6.74;96.11816;961.5055;;;;
2019/10/06 04:26:39;;;;;;;7.9;7.2;;;;;;;6.77;95.69043;961.5583;;;;
2019/10/06 04:29:04;;;;;;;8.2;7.5;;;;;;;6.58;96.50391;961.5481;;;;
2019/10/06 04:31:30;;;;;;;7.9;7.2;;;;;;;6.68;96.52637;961.5419;;;;
2019/10/06 04:33:55;;;;;;;8.6;7.6;;;;;;;6.72;95.84961;961.4113;;;;
2019/10/06 04:36:20;;;;;;;9.2;7.9;;;;;;;6.74;95.8877;961.3409;;;;
2019/10/06 04:38:46;;;;;;;8.7;7.8;;;;;;;6.77;95.73633;961.2392;;;;
2019/10/06 04:41:11;;;;;;;9;8.2;;;;;;;6.84;96.35742;961.2748;;;;
2019/10/06 04:43:36;;;;;;;8.3;7.5;;;;;;;7;95.78613;961.3281;;;;
2019/10/06 04:46:01;;;;;;;8.4;7.7;;;;;;;6.9;96.07422;961.3686;;;;
2019/10/06 04:48:28;;;;;;;8.4;7.6;;;;;;;6.87;95.21094;961.2849;;;;
2019/10/06 04:50:52;;;;;;;8.6;7.8;;;;;;;6.67;95.80566;961.285;;;;
2019/10/06 04:53:18;;;;;;;9.1;8.4;;;;;;;6.62;95.83008;961.267;;;;
2019/10/06 04:55:43;;;;;;;9.3;8.2;;;;;;;6.69;96.19727;961.288;;;;
2019/10/06 04:58:09;;;;;;;9.1;8.2;;;;;;;6.61;96.2002;961.2767;;;;
2019/10/06 05:00:34;;;;;;;9.8;8.9;;;;;;;6.49;97.1543;961.3184;;;;
2019/10/06 05:03:00;;;;;;;9.2;8.4;;;;;;;6.54;96.39063;961.3803;;;;
2019/10/06 05:05:25;;;;;;;9.5;8.6;;;;;;;6.62;96.86523;961.3446;;;;
2019/10/06 05:07:51;;;;;;;15.3;13.8;;;;;;;6.72;96.41016;961.4163;;;;
2019/10/06 05:10:16;;;;;;;11.1;10;;;;;;;6.69;96.3916;961.4556;;;;
2019/10/06 05:12:41;;;;;;;9.6;8.7;;;;;;;6.74;96.54004;961.5369;;;;
2019/10/06 05:15:06;;;;;;;11.2;9.4;;;;;;;6.77;96.25;961.5899;;;;
2019/10/06 05:17:31;;;;;;;9.7;8.8;;;;;;;6.85;95.78809;961.5597;;;;
2019/10/06 05:19:57;;;;;;;9.9;9;;;;;;;6.89;95.68262;961.5602;;;;
2019/10/06 05:22:22;;;;;;;9.5;8.5;;;;;;;6.72;96.37598;961.5402;;;;
2019/10/06 05:24:48;;;;;;;10.4;9.4;;;;;;;6.46;97.54883;961.5339;;;;
2019/10/06 05:27:13;;;;;;;9.8;8.9;;;;;;;6.54;97.24805;961.5366;;;;
2019/10/06 05:29:38;;;;;;;9.7;8.8;;;;;;;6.66;97.1582;961.5676;;;;
2019/10/06 05:32:04;;;;;;;10.7;9.7;;;;;;;6.78;97.79199;961.6005;;;;
2019/10/06 05:34:29;;;;;;;10.2;9.2;;;;;;;6.72;96.58008;961.5158;;;;
2019/10/06 05:36:54;;;;;;;9.7;8.9;;;;;;;6.82;96.09082;961.5618;;;;
2019/10/06 05:39:19;;;;;;;9.4;8.5;;;;;;;6.73;95.80762;961.5545;;;;
2019/10/06 05:41:44;;;;;;;9.6;8.8;;;;;;;6.9;95.3877;961.4899;;;;
2019/10/06 05:46:43;;;;;;;9.8;8.9;;;;;;;6.91;96.37305;961.3978;;;;
2019/10/06 05:49:08;;;;;;;10;9.1;;;;;;;6.75;96.06348;961.4116;;;;
2019/10/06 05:51:29;;;;;;;9.5;8.7;;;;;;;6.96;96.04102;961.3608;;;;
2019/10/06 05:53:51;;;;;;;9.7;8.8;;;;;;;7.03;94.62793;961.2287;;;;
2019/10/06 05:56:16;;;;;;;9.8;8.9;;;;;;;7.06;95.03711;961.1533;;;;
2019/10/06 05:58:41;;;;;;;9.8;9;;;;;;;7.14;94.28809;961.2181;;;;
2019/10/06 06:01:06;;;;;;;10.2;9.3;;;;;;;7.04;94.0498;961.247;;;;
2019/10/06 06:03:31;;;;;;;10.5;9.5;;;;;;;6.98;95.23633;961.2264;;;;
2019/10/06 06:05:56;;;;;;;10.3;9.4;;;;;;;6.98;95.04004;961.2733;;;;
2019/10/06 06:08:21;;;;;;;10.5;9.5;;;;;;;6.96;95.60742;961.2313;;;;
2019/10/06 06:10:47;;;;;;;10.3;9.3;;;;;;;7.13;94.64941;961.2559;;;;
2019/10/06 06:13:13;;;;;;;10.5;9.5;;;;;;;7.07;94.64941;961.3017;;;;
2019/10/06 06:15:38;;;;;;;11;10;;;;;;;6.91;94.68457;961.2581;;;;
2019/10/06 06:18:03;;;;;;;9.8;9;;;;;;;7.07;94.68359;961.249;;;;
2019/10/06 06:20:28;;;;;;;12.7;9.1;;;;;;;7.35;93.00879;961.1482;;;;
2019/10/06 06:22:53;;;;;;;10.6;9.7;;;;;;;6.97;95.24609;961.2483;;;;
2019/10/06 06:25:23;;;;;;;10.6;9.6;;;;;;;6.94;95.68262;961.2511;;;;
2019/10/06 06:27:47;;;;;;;10.9;9.9;;;;;;;7.29;94.74414;961.2646;;;;
2019/10/06 06:30:12;;;;;;;10.6;9.7;;;;;;;7.3;94.88379;961.2186;;;;
2019/10/06 06:32:37;;;;;;;10.8;9.8;;;;;;;7.45;95.12305;961.2403;;;;
2019/10/06 06:35:02;;;;;;;11.4;10.4;;;;;;;7.47;93.88086;961.2935;;;;
2019/10/06 06:37:27;;;;;;;11.7;10.6;;;;;;;7.48;94.02246;961.2584;;;;
2019/10/06 06:39:53;;;;;;;10.9;9.8;;;;;;;7.48;93.66797;961.3273;;;;
2019/10/06 06:42:18;;;;;;;12.2;11.1;;;;;;;7.26;95.70703;961.3632;;;;
2019/10/06 06:44:43;;;;;;;11.3;10.3;;;;;;;7.33;94.94629;961.4482;;;;
2019/10/06 06:47:08;;;;;;;11.2;10.2;;;;;;;7.25;94.71387;961.5195;;;;
2019/10/06 06:49:33;;;;;;;11.8;10.8;;;;;;;7.09;95.06641;961.4821;;;;
2019/10/06 06:51:58;;;;;;;11.1;10;;;;;;;7.34;94.95996;961.5023;;;;
2019/10/06 06:54:23;;;;;;;11.5;10.5;;;;;;;7.37;94.80957;961.4467;;;;
2019/10/06 06:56:48;;;;;;;11.7;10.7;;;;;;;7.47;94.39551;961.4839;;;;
2019/10/06 06:59:13;;;;;;;12.2;11;;;;;;;7.55;94.74609;961.4683;;;;
2019/10/06 07:01:38;;;;;;;12.3;11.2;;;;;;;7.57;94.87402;961.4344;;;;
2019/10/06 07:04:04;;;;;;;12.5;11.3;;;;;;;7.42;95.66309;961.4436;;;;
2019/10/06 07:06:29;;;;;;;12.6;11.4;;;;;;;7.3;94.80566;961.4492;;;;
2019/10/06 07:08:54;;;;;;;12.9;11.7;;;;;;;7.28;95.83887;961.365;;;;
2019/10/06 07:11:19;;;;;;;12.3;11.1;;;;;;;7.57;93.90234;961.3663;;;;
2019/10/06 07:13:44;;;;;;;14.3;12.9;;;;;;;7.35;96.07227;961.4459;;;;
2019/10/06 07:16:09;;;;;;;13.9;12.6;;;;;;;7.37;95.29004;961.4256;;;;
2019/10/06 07:18:34;;;;;;;12.6;11.5;;;;;;;7.47;94.32715;961.3535;;;;
2019/10/06 07:20:59;;;;;;;12.8;11.6;;;;;;;7.59;95.03809;961.3152;;;;
2019/10/06 07:23:24;;;;;;;12.7;11.6;;;;;;;7.66;93.65039;961.3114;;;;
2019/10/06 07:25:49;;;;;;;13.5;12.2;;;;;;;7.67;94.87305;961.3513;;;;
2019/10/06 07:28:23;;;;;;;12.6;11.5;;;;;;;7.87;94.00586;961.3904;;;;
2019/10/06 07:30:48;;;;;;;12.3;11.1;;;;;;;8.03;93.56934;961.3783;;;;
2019/10/06 07:33:13;;;;;;;12.4;11.3;;;;;;;8.09;92.36816;961.3963;;;;
2019/10/06 07:35:38;;;;;;;12.6;11.4;;;;;;;7.86;94.0459;961.3898;;;;
2019/10/06 07:38:03;;;;;;;13.1;11.9;;;;;;;8.04;93.48926;961.3736;;;;
2019/10/06 07:40:29;;;;;;;12.7;11.5;;;;;;;8.08;92.88184;961.3653;;;;
2019/10/06 07:43:02;;;;;;;12.2;11.1;;;;;;;8.17;91.65332;961.3429;;;;
2019/10/06 07:45:19;;;;;;;12.5;11.4;;;;;;;8.26;91.68359;961.366;;;;
2019/10/06 07:47:44;;;;;;;13;11.9;;;;;;;8.27;91.52539;961.3484;;;;
2019/10/06 07:50:09;;;;;;;12.9;11.8;;;;;;;8.12;92.75391;961.3633;;;;
2019/10/06 07:52:34;;;;;;;12.9;11.7;;;;;;;8.24;92.28711;961.3272;;;;
2019/10/06 07:54:59;;;;;;;13;11.8;;;;;;;8.32;90.99902;961.3858;;;;
2019/10/06 07:57:24;;;;;;;13.4;12.1;;;;;;;8.36;90.43359;961.3763;;;;
2019/10/06 07:59:50;;;;;;;12.3;11.2;;;;;;;8.35;90.55762;961.364;;;;
2019/10/06 08:02:15;;;;;;;12.2;11.1;;;;;;;8.46;90.99316;961.3414;;;;
2019/10/06 08:04:40;;;;;;;12.8;11.6;;;;;;;8.66;90.22266;961.336;;;;
2019/10/06 08:07:05;;;;;;;13;11.9;;;;;;;8.64;89.16504;961.3621;;;;
2019/10/06 08:09:31;;;;;;;12.6;11.5;;;;;;;8.71;90.23438;961.34;;;;
2019/10/06 08:11:56;;;;;;;12.9;11.8;;;;;;;8.86;89.00488;961.3443;;;;
2019/10/06 08:14:21;;;;;;;12.6;11.4;;;;;;;8.84;89.49219;961.3875;;;;
2019/10/06 08:16:46;;;;;;;13.6;12.3;;;;;;;8.99;89.93457;961.2982;;;;
2019/10/06 08:19:12;;;;;;;13.5;12.2;;;;;;;8.98;89.77441;961.2551;;;;
2019/10/06 08:21:37;;;;;;;12.6;11.5;;;;;;;9;89.125;961.1756;;;;
2019/10/06 08:24:03;;;;;;;13.6;12.4;;;;;;;9.02;90.35547;961.1877;;;;
2019/10/06 08:26:28;;;;;;;13;11.9;;;;;;;9.05;88.96191;961.1569;;;;
2019/10/06 08:28:54;;;;;;;13;11.9;;;;;;;9.11;88.8252;961.217;;;;
2019/10/06 08:31:19;;;;;;;13.9;12.6;;;;;;;9.1;88.42188;961.1819;;;;
2019/10/06 08:33:44;;;;;;;14;12.7;;;;;;;9.17;88.00098;961.1365;;;;
2019/10/06 08:36:09;;;;;;;14.5;13.1;;;;;;;9.19;88.19824;961.1412;;;;
2019/10/06 08:38:34;;;;;;;14;12.7;;;;;;;9.21;88.05469;961.1131;;;;
2019/10/06 08:41:00;;;;;;;14.3;13.1;;;;;;;9.16;88.10254;961.0737;;;;
2019/10/06 08:43:25;;;;;;;14;12.7;;;;;;;9.31;88.96973;961.0053;;;;
2019/10/06 08:45:51;;;;;;;13.4;12.2;;;;;;;9.28;88.34668;960.9297;;;;
2019/10/06 08:48:16;;;;;;;13.3;12;;;;;;;9.33;88.89258;960.926;;;;
2019/10/06 08:50:41;;;;;;;13.1;11.9;;;;;;;9.47;88.19922;960.9069;;;;
2019/10/06 08:53:06;;;;;;;13.4;12.2;;;;;;;9.38;87.76953;960.8527;;;;
2019/10/06 08:55:31;;;;;;;13.7;12.5;;;;;;;9.43;87.27344;960.8083;;;;
2019/10/06 08:57:57;;;;;;;14.2;13;;;;;;;;;;;;;
2019/10/06 09:00:22;;;;;;;14.5;13.3;;;;;;;;;;;;;
2019/10/06 09:02:47;;;;;;;14.4;13;;;;;;;;;;;;;
2019/10/06 09:05:13;;;;;;;13.7;12.4;;;;;;;;;;;;;
2019/10/06 09:07:38;;;;;;;13.6;12.4;;;;;;;;;;;;;
2019/10/06 09:10:03;;;;;;;13.9;12.7;;;;;;;;;;;;;
2019/10/06 09:12:28;;;;;;;13;11.9;;;;;;;;;;;;;
2019/10/06 09:14:53;;;;;;;13.2;12;;;;;;;;;;;;;
2019/10/06 09:17:18;;;;;;;12.3;11.3;;;;;;;;;;;;;
2019/10/06 09:19:43;;;;;;;11.3;10.3;;;;;;;;;;;;;
2019/10/06 09:22:08;;;;;;;11.9;10.8;;;;;;;;;;;;;
2019/10/06 09:24:33;;;;;;;12.2;11.2;;;;;;;;;;;;;
2019/10/06 09:26:59;;;;;;;10.9;10;;;;;;;;;;;;;
2019/10/06 09:29:24;;;;;;;10.9;10;;;;;;;;;;;;;
2019/10/06 09:31:49;;;;;;;10.7;9.7;;;;;;;;;;;;;
2019/10/06 09:34:14;;;;;;;10.8;9.8;;;;;;;;;;;;;
2019/10/06 09:36:39;;;;;;;10.1;9.2;;;;;;;;;;;;;
2019/10/06 09:39:04;;;;;;;10.1;9.3;;;;;;;;;;;;;
2019/10/06 09:41:29;;;;;;;10.6;9.7;;;;;;;;;;;;;
2019/10/06 09:43:54;;;;;;;11.3;10.2;;;;;;;;;;;;;
2019/10/06 09:46:19;;;;;;;11;10;;;;;;;;;;;;;
2019/10/06 09:48:45;;;;;;;11.2;10.1;;;;;;;;;;;;;
2019/10/06 09:51:10;;;;;;;10.1;9.2;;;;;;;;;;;;;
2019/10/06 09:53:35;;;;;;;10.3;9.3;;;;;;;;;;;;;
2019/10/06 09:56:00;;;;;;;9.8;9;;;;;;;;;;;;;
2019/10/06 09:58:25;;;;;;;10.5;9.6;;;;;;;;;;;;;
2019/10/06 10:00:50;;;;;;;10.7;9.7;;;;;;;;;;;;;
2019/10/06 10:03:16;;;;;;;9.9;9;;;;;;;;;;;;;
2019/10/06 10:05:40;;;;;;;10.5;9.4;;;;;;;;;;;;;
2019/10/06 10:08:06;;;;;;;9.8;8.9;;;;;;;;;;;;;
2019/10/06 10:10:31;;;;;;;9.9;9.1;;;;;;;;;;;;;
2019/10/06 10:12:56;;;;;;;9.7;8.8;;;;;;;;;;;;;
2019/10/06 10:15:32;;;;;;;9.9;9;;;;;;;;;;;;;
2019/10/06 10:17:46;;;;;;;9.9;8.9;;;;;;;;;;;;;
2019/10/06 10:20:11;;;;;;;9.4;8.6;;;;;;;;;;;;;
2019/10/06 10:22:36;;;;;;;9.4;8.6;;;;;;;;;;;;;
2019/10/06 10:25:01;;;;;;;9.7;8.8;;;;;;;;;;;;;
2019/10/06 10:27:27;;;;;;;9.7;8.8;;;;;;;;;;;;;
2019/10/06 10:29:52;;;;;;;8.7;7.9;;;;;;;;;;;;;
2019/10/06 10:32:17;;;;;;;8.5;7.8;;;;;;;;;;;;;
2019/10/06 10:34:42;;;;;;;9.1;8.3;;;;;;;;;;;;;
2019/10/06 10:37:11;;;;;;;8.8;8;;;;;;;;;;;;;
2019/10/06 10:39:33;;;;;;;8.5;7.8;;;;;;;;;;;;;
2019/10/06 10:41:57;;;;;;;8.6;7.7;;;;;;;;;;;;;
2019/10/06 10:44:22;;;;;;;9;8.1;;;;;;;;;;;;;
2019/10/06 10:46:47;;;;;;;8.9;8.1;;;;;;;;;;;;;
2019/10/06 10:49:13;;;;;;;10.5;9.5;;;;;;;;;;;;;
2019/10/06 10:51:38;;;;;;;9.3;8.5;;;;;;;;;;;;;
2019/10/06 10:54:03;;;;;;;18.3;14.9;;;;;;;;;;;;;
2019/10/06 10:56:28;;;;;;;11.9;10.7;;;;;;;;;;;;;
2019/10/06 10:58:53;;;;;;;8.4;7.7;;;;;;;;;;;;;
2019/10/06 11:01:18;;;;;;;7.9;7.1;;;;;;;;;;;;;
2019/10/06 11:03:43;;;;;;;7.5;6.8;;;;;;;;;;;;;
2019/10/06 11:06:08;;;;;;;8.4;7.6;;;;;;;;;;;;;
2019/10/06 11:08:52;;;;;;;8.1;7.3;;;;;;;;;;;;;
2019/10/06 11:10:58;;;;;;;8.9;8;;;;;;;;;;;;;
2019/10/06 11:13:23;;;;;;;8.5;7.7;;;;;;;;;;;;;
2019/10/06 11:15:49;;;;;;;8;7.3;;;;;;;;;;;;;
2019/10/06 11:18:14;;;;;;;9.6;8.7;;;;;;;;;;;;;
2019/10/06 11:20:39;;;;;;;11.7;10.5;;;;;;;;;;;;;
2019/10/06 11:23:04;;;;;;;8.8;8;;;;;;;;;;;;;
2019/10/06 11:25:29;;;;;;;12.1;10.7;;;;;;;;;;;;;
2019/10/06 11:27:54;;;;;;;11.4;9.8;;;;;;;;;;;;;
2019/10/06 11:30:19;;;;;;;10.7;9.3;;;;;;;;;;;;;
2019/10/06 11:32:44;;;;;;;11.3;10.2;;;;;;;;;;;;;
2019/10/06 11:35:10;;;;;;;16;13.1;;;;;;;;;;;;;
2019/10/06 11:37:35;;;;;;;9.9;9;;;;;;;;;;;;;
2019/10/06 11:40:00;;;;;;;10.4;9.3;;;;;;;;;;;;;
2019/10/06 11:42:25;;;;;;;10.5;9.4;;;;;;;;;;;;;
2019/10/06 11:44:50;;;;;;;10.6;9.6;;;;;;;;;;;;;
2019/10/06 11:47:15;;;;;;;9;8.2;;;;;;;;;;;;;
2019/10/06 11:49:50;;;;;;;9.6;8.7;;;;;;;;;;;;;
2019/10/06 11:52:05;;;;;;;10.4;9.4;;;;;;;;;;;;;
2019/10/06 11:54:30;;;;;;;11.2;10.1;;;;;;;;;;;;;
2019/10/06 11:56:55;;;;;;;10.4;9.4;;;;;;;;;;;;;
2019/10/06 11:59:21;;;;;;;11.4;10.3;;;;;;;;;;;;;
2019/10/06 12:01:46;;;;;;;10.3;9.3;;;;;;;;;;;;;
2019/10/06 12:04:11;;;;;;;12;10.8;;;;;;;;;;;;;
2019/10/06 12:06:36;;;;;;;13.3;11.5;;;;;;;;;;;;;
2019/10/06 12:09:01;;;;;;;10.6;9.6;;;;;;;;;;;;;
2019/10/06 12:11:26;;;;;;;9.2;8.4;;;;;;;;;;;;;
2019/10/06 12:13:51;;;;;;;9.1;8.3;;;;;;;;;;;;;
2019/10/06 12:16:16;;;;;;;9.9;8.9;;;;;;;;;;;;;
2019/10/06 12:18:41;;;;;;;9.5;8.6;;;;;;;;;;;;;
2019/10/06 12:21:06;;;;;;;9.1;8.3;;;;;;;;;;;;;
2019/10/06 12:23:32;;;;;;;7.2;6.5;;;;;;;;;;;;;
2019/10/06 12:25:57;;;;;;;7.2;6.5;;;;;;;;;;;;;
2019/10/06 12:28:22;;;;;;;6.8;6.2;;;;;;;;;;;;;
2019/10/06 12:30:47;;;;;;;6.4;5.8;;;;;;;;;;;;;
2019/10/06 12:33:12;;;;;;;6.5;5.9;;;;;;;;;;;;;
2019/10/06 12:35:37;;;;;;;6.2;5.6;;;;;;;;;;;;;
2019/10/06 12:38:02;;;;;;;5.5;5;;;;;;;;;;;;;
2019/10/06 12:40:27;;;;;;;5.9;5.1;;;;;;;;;;;;;
2019/10/06 12:42:52;;;;;;;6.1;5.6;;;;;;;;;;;;;
2019/10/06 12:45:17;;;;;;;5.3;4.9;;;;;;;;;;;;;
2019/10/06 12:47:42;;;;;;;5.6;5;;;;;;;;;;;;;
2019/10/06 12:50:07;;;;;;;5.7;5.2;;;;;;;;;;;;;
2019/10/06 12:52:32;;;;;;;5.8;5.3;;;;;;;;;;;;;
2019/10/06 12:54:57;;;;;;;6.5;6;;;;;;;;;;;;;
2019/10/06 12:57:23;;;;;;;6.4;5.8;;;;;;;;;;;;;
2019/10/06 12:59:48;;;;;;;7.3;6.6;;;;;;;;;;;;;
2019/10/06 13:02:13;;;;;;;7.4;6.7;;;;;;;;;;;;;
2019/10/06 13:04:38;;;;;;;7.5;6.8;;;;;;;;;;;;;
2019/10/06 13:07:03;;;;;;;6.9;6.3;;;;;;;;;;;;;
2019/10/06 13:09:28;;;;;;;6.8;6.2;;;;;;;;;;;;;
2019/10/06 13:11:53;;;;;;;6.7;6.2;;;;;;;;;;;;;
2019/10/06 13:14:18;;;;;;;7.3;6.6;;;;;;;;;;;;;
2019/10/06 13:16:43;;;;;;;7.5;6.8;;;;;;;;;;;;;
2019/10/06 13:19:08;;;;;;;7.4;6.6;;;;;;;;;;;;;
2019/10/06 13:21:34;;;;;;;7.3;6.6;;;;;;;;;;;;;
2019/10/06 13:23:59;;;;;;;6.8;6.2;;;;;;;;;;;;;
2019/10/06 13:26:24;;;;;;;7;6.4;;;;;;;;;;;;;
2019/10/06 13:28:49;;;;;;;7;6.3;;;;;;;;;;;;;
2019/10/06 13:31:14;;;;;;;7;6.4;;;;;;;;;;;;;
2019/10/06 13:33:39;;;;;;;6.8;6;;;;;;;;;;;;;
2019/10/06 13:36:04;;;;;;;7.5;6.8;;;;;;;;;;;;;
2019/10/06 13:38:30;;;;;;;7.7;7;;;;;;;;;;;;;
2019/10/06 13:42:23;;;;;;;6.5;5.9;;;;;;;;;;;;;
2019/10/06 13:44:48;;;;;;;6.6;6;;;;;;;;;;;;;
2019/10/06 13:47:13;;;;;;;6.6;5.9;;;;;;;;;;;;;
2019/10/06 13:49:38;;;;;;;6.2;5.6;;;;;;;;;;;;;
2019/10/06 13:52:04;;;;;;;6;5.5;;;;;;;;;;;;;
2019/10/06 13:54:29;;;;;;;6.3;5.8;;;;;;;;;;;;;
2019/10/06 13:56:54;;;;;;;6.9;6.3;;;;;;;;;;;;;
2019/10/06 13:59:19;;;;;;;8.4;6;;;;;;;;;;;;;
2019/10/06 14:01:44;;;;;;;8.1;7.3;;;;;;;;;;;;;
2019/10/06 14:04:09;;;;;;;7.6;6.9;;;;;;;;;;;;;
2019/10/06 14:06:34;;;;;;;7.6;6.9;;;;;;;;;;;;;
2019/10/06 14:08:59;;;;;;;7.5;6.8;;;;;;;;;;;;;
2019/10/06 14:11:24;;;;;;;7.1;6.5;;;;;;;;;;;;;
2019/10/06 14:13:49;;;;;;;7.2;6.6;;;;;;;;;;;;;
2019/10/06 14:16:14;;;;;;;7.4;6.8;;;;;;;;;;;;;
2019/10/06 14:18:40;;;;;;;7.3;6.5;;;;;;;;;;;;;
2019/10/06 14:21:05;;;;;;;7.9;6.9;;;;;;;;;;;;;
2019/10/06 14:23:30;;;;;;;8.2;7.5;;;;;;;;;;;;;
2019/10/06 14:25:55;;;;;;;8;7.3;;;;;;;;;;;;;
2019/10/06 14:28:20;;;;;;;8.2;7.5;;;;;;;;;;;;;
2019/10/06 14:30:45;;;;;;;8.5;7.8;;;;;;;;;;;;;
2019/10/06 14:33:10;;;;;;;8.5;7.8;;;;;;;;;;;;;
2019/10/06 14:35:35;;;;;;;8.7;8;;;;;;;;;;;;;
2019/10/06 14:38:00;;;;;;;9.1;8.3;;;;;;;;;;;;;
2019/10/06 14:40:25;;;;;;;8.9;8.1;;;;;;;;;;;;;
2019/10/06 14:42:50;;;;;;;9.5;8.7;;;;;;;;;;;;;
2019/10/06 14:45:16;;;;;;;9;8.1;;;;;;;;;;;;;
2019/10/06 14:47:41;;;;;;;9.2;8.4;;;;;;;;;;;;;
2019/10/06 14:50:06;;;;;;;8.7;7.9;;;;;;;;;;;;;
2019/10/06 14:52:31;;;;;;;8.9;8.1;;;;;;;;;;;;;
2019/10/06 14:54:56;;;;;;;9.7;8.8;;;;;;;;;;;;;
2019/10/06 14:57:21;;;;;;;9.3;8.5;;;;;;;;;;;;;
2019/10/06 14:59:52;;;;;;;9.9;9.1;;;;;;;;;;;;;
2019/10/06 15:02:11;;;;;;;10.1;9.2;;;;;;;;;;;;;
2019/10/06 15:04:37;;;;;;;10.8;9.9;;;;;;;;;;;;;
2019/10/06 15:07:02;;;;;;;10.2;9.2;;;;;;;;;;;;;
2019/10/06 15:09:27;;;;;;;10.6;9.7;;;;;;;;;;;;;
2019/10/06 15:11:52;;;;;;;9.8;8.9;;;;;;;;;;;;;
2019/10/06 15:14:17;;;;;;;10.6;9.6;;;;;;;;;;;;;
2019/10/06 15:16:42;;;;;;;9.4;8.6;;;;;;;;;;;;;
2019/10/06 15:19:07;;;;;;;9.6;8.7;;;;;;;;;;;;;
2019/10/06 15:21:32;;;;;;;10.1;9.2;;;;;;;;;;;;;
2019/10/06 15:23:58;;;;;;;10.1;9.2;;;;;;;;;;;;;
2019/10/06 15:26:23;;;;;;;10.5;9.5;;;;;;;;;;;;;
2019/10/06 15:28:48;;;;;;;10.2;9.2;;;;;;;;;;;;;
2019/10/06 15:31:13;;;;;;;9;8.2;;;;;;;;;;;;;
2019/10/06 15:33:38;;;;;;;11.1;10;;;;;;;;;;;;;
2019/10/06 15:36:03;;;;;;;16.4;14.7;;;;;;;;;;;;;
2019/10/06 15:38:28;;;;;;;17.8;14.2;;;;;;;;;;;;;
2019/10/06 15:40:54;;;;;;;11.5;10.3;;;;;;;;;;;;;
2019/10/06 15:43:18;;;;;;;10.6;9.6;;;;;;;;;;;;;
2019/10/06 15:45:43;;;;;;;10.2;9.2;;;;;;;;;;;;;
2019/10/06 15:48:08;;;;;;;10.7;9.7;;;;;;;;;;;;;
2019/10/06 15:50:34;;;;;;;9.9;8.9;;;;;;;;;;;;;
2019/10/06 15:52:58;;;;;;;9.7;8.8;;;;;;;;;;;;;
2019/10/06 15:55:24;;;;;;;10.4;9.5;;;;;;;;;;;;;
2019/10/06 15:57:49;;;;;;;10.2;9.3;;;;;;;;;;;;;
2019/10/06 16:00:14;;;;;;;10.1;9.1;;;;;;;;;;;;;
2019/10/06 16:02:39;;;;;;;9.8;9;;;;;;;;;;;;;
2019/10/06 16:05:04;;;;;;;10.3;9.4;;;;;;;;;;;;;
2019/10/06 16:07:29;;;;;;;11.1;10;;;;;;;;;;;;;
2019/10/06 16:10:00;;;;;;;9.6;8.8;;;;;;;;;;;;;
2019/10/06 16:12:56;;;;;;;10.8;9.8;;;;;;;;;;;;;
2019/10/06 16:14:50;;;;;;;10.4;9.4;;;;;;;;;;;;;
2019/10/06 16:17:15;;;;;;;10.7;9.5;;;;;;;;;;;;;
2019/10/06 16:19:41;;;;;;;11.4;10.3;;;;;;;;;;;;;
2019/10/06 16:22:06;;;;;;;10.2;9.3;;;;;;;;;;;;;
2019/10/06 16:24:31;;;;;;;11.2;10.1;;;;;;;;;;;;;
2019/10/06 16:26:56;;;;;;;11.3;10.3;;;;;;;;;;;;;
2019/10/06 16:29:21;;;;;;;12.2;11.1;;;;;;;;;;;;;
2019/10/06 16:31:46;;;;;;;13;11.8;;;;;;;;;;;;;
2019/10/06 16:34:11;;;;;;;11.9;10.9;;;;;;;;;;;;;
2019/10/06 16:36:36;;;;;;;11.3;10.2;;;;;;;;;;;;;
2019/10/06 16:39:01;;;;;;;11.5;10.5;;;;;;;;;;;;;
2019/10/06 16:41:26;;;;;;;11.2;10.1;;;;;;;;;;;;;
2019/10/06 16:43:51;;;;;;;12;11;;;;;;;;;;;;;
2019/10/06 16:46:17;;;;;;;12;10.8;;;;;;;;;;;;;
2019/10/06 16:48:41;;;;;;;12;10.9;;;;;;;;;;;;;
2019/10/06 16:51:07;;;;;;;11.7;10.5;;;;;;;;;;;;;
2019/10/06 16:53:32;;;;;;;12.4;11.2;;;;;;;;;;;;;
2019/10/06 16:55:57;;;;;;;12.8;11.6;;;;;;;;;;;;;
2019/10/06 16:58:22;;;;;;;14.9;13.3;;;;;;;;;;;;;
2019/10/06 17:00:47;;;;;;;13.9;12.5;;;;;;;;;;;;;
2019/10/06 17:03:12;;;;;;;13.1;11.9;;;;;;;;;;;;;
2019/10/06 17:05:37;;;;;;;12.7;11.5;;;;;;;;;;;;;
2019/10/06 17:08:02;;;;;;;13;11.8;;;;;;;;;;;;;
2019/10/06 17:10:27;;;;;;;14.6;13.2;;;;;;;;;;;;;
2019/10/06 17:12:53;;;;;;;14.3;12.9;;;;;;;;;;;;;
2019/10/06 17:15:18;;;;;;;13.3;12.1;;;;;;;;;;;;;
2019/10/06 17:17:43;;;;;;;12.8;11.6;;;;;;;;;;;;;
2019/10/06 17:20:08;;;;;;;12.5;11.4;;;;;;;;;;;;;
2019/10/06 17:22:33;;;;;;;12.8;11.7;;;;;;;;;;;;;
2019/10/06 17:24:58;;;;;;;12.5;11.2;;;;;;;;;;;;;
2019/10/06 17:27:23;;;;;;;12.6;11.5;;;;;;;;;;;;;
2019/10/06 17:29:48;;;;;;;13.8;12.4;;;;;;;;;;;;;
2019/10/06 17:32:13;;;;;;;15;12.8;;;;;;;;;;;;;
2019/10/06 17:34:38;;;;;;;12.2;11.1;;;;;;;;;;;;;
2019/10/06 17:37:04;;;;;;;13.7;12.4;;;;;;;;;;;;;
2019/10/06 17:39:29;;;;;;;13.3;12.1;;;;;;;;;;;;;
2019/10/06 17:41:54;;;;;;;13;11.8;;;;;;;;;;;;;
2019/10/06 17:44:19;;;;;;;12.7;11.5;;;;;;;;;;;;;
2019/10/06 17:46:44;;;;;;;12.1;11;;;;;;;;;;;;;
2019/10/06 17:49:09;;;;;;;12;10.8;;;;;;;;;;;;;
2019/10/06 17:51:34;;;;;;;11.7;10.6;;;;;;;;;;;;;
2019/10/06 17:53:59;;;;;;;12.2;11;;;;;;;;;;;;;
2019/10/06 17:56:24;;;;;;;11.8;10.7;;;;;;;;;;;;;
2019/10/06 17:58:49;;;;;;;12.3;11.1;;;;;;;;;;;;;
2019/10/06 18:01:14;;;;;;;12.1;11;;;;;;;;;;;;;
2019/10/06 18:03:39;;;;;;;11.1;10.1;;;;;;;;;;;;;
2019/10/06 18:06:05;;;;;;;10.6;9.7;;;;;;;;;;;;;
2019/10/06 18:08:30;;;;;;;9.9;9;;;;;;;;;;;;;
2019/10/06 18:10:55;;;;;;;10.1;9.2;;;;;;;;;;;;;
2019/10/06 18:13:20;;;;;;;10.2;9.2;;;;;;;;;;;;;
2019/10/06 18:15:45;;;;;;;11.1;10.1;;;;;;;;;;;;;
2019/10/06 18:18:10;;;;;;;10.9;9.9;;;;;;;;;;;;;